• Join FlightAware (Why Join?)
  • Login
  • US Flag 
 
07:34PM EST


 

Airport Tracker/Info


-or-


 

Live Flight TrackerFlight Track Log ✈ DAL863 ✈ 03-May-2013 ✈ KJFK - KLAX

Flight Track Log - Related Links

Times and Time Zones

All times are in EDT time to prevent confusion due to time zone crossing. See the DAL863 flight status page for this flight to view local times or setup timezone preferences in your user account.

Time Position Orientation Groundspeed Altitude Reporting Facility
EDT Latitude Longitude Course Direction KTS MPH feet Rate Location/Type
12:18PM 40.6340 -73.7860 120° Southeast 160 184 200  Level FlightAware
12:18PM 40.6290 -73.7790 133° Southeast 161 185 700 1,920 Climbing FlightAware
12:18PM 40.6180 -73.7750 165° South 184 212 1,000 1,320 Climbing FlightAware
12:19PM 40.5880 -73.7700 173° South 234 269 1,700 1,920 Climbing FlightAware
12:19PM 40.5580 -73.7790 193° South 262 302 2,800 2,700 Climbing FlightAware
12:20PM 40.5300 -73.8080 218° Southwest 282 325 4,200 2,820 Climbing FlightAware
12:20PM 40.5140 -73.8430 239° Southwest 288 331 5,400 2,820 Climbing FlightAware
12:20PM 40.5020 -73.8640 233° Southwest 291 335 6,100 3,300 Climbing FlightAware
12:21PM 40.4790 -73.9100 237° Southwest 293 337 7,900 3,300 Climbing FlightAware
12:21PM 40.4570 -73.9570 238° Southwest 301 346 9,400 2,160 Climbing FlightAware
12:22PM 40.4232 -74.0284 238° Southwest 344 396 10,500 1,620 Climbing FlightAware ADS-B
12:22PM 40.4019 -74.0738 238° Southwest 366 421 11,200 1,560 Climbing FlightAware ADS-B
12:23PM 40.3727 -74.1350 238° Southwest 390 449 12,000 1,980 Climbing FlightAware ADS-B
12:23PM 40.3436 -74.1969 238° Southwest 399 459 13,300 2,460 Climbing FlightAware ADS-B
12:24PM 40.3198 -74.2494 239° Southwest 410 472 14,300 2,280 Climbing FlightAware ADS-B
12:24PM 40.3133 -74.2745 251° West 413 475 14,700 2,100 Climbing FlightAware ADS-B
12:24PM 40.3115 -74.2906 262° West 410 472 14,900 2,160 Climbing FlightAware ADS-B
12:25PM 40.3060 -74.3633 264° West 414 476 16,000 2,160 Climbing FlightAware ADS-B
12:25PM 40.2956 -74.4470 261° West 425 489 17,200 2,340 Climbing FlightAware ADS-B
12:26PM 40.2846 -74.5240 259° West 424 488 18,500 2,220 Climbing FlightAware ADS-B
12:26PM 40.2751 -74.6028 261° West 431 496 19,500 1,920 Climbing FlightAware ADS-B
12:27PM 40.2659 -74.6856 262° West 437 503 20,500 1,800 Climbing FlightAware ADS-B
12:27PM 40.2567 -74.7673 262° West 444 511 21,400 1,740 Climbing FlightAware ADS-B
12:28PM 40.2468 -74.8566 262° West 448 516 22,400 1,680 Climbing FlightAware ADS-B
12:28PM 40.2370 -74.9442 262° West 456 525 23,300 1,800 Climbing FlightAware ADS-B
12:29PM 40.2279 -75.0261 262° West 455 524 24,300 1,860 Climbing FlightAware ADS-B
12:29PM 40.2186 -75.1087 262° West 458 527 25,200 1,620 Climbing FlightAware ADS-B
12:30PM 40.2092 -75.1925 262° West 459 528 26,000 1,440 Climbing FlightAware ADS-B
12:30PM 40.1998 -75.2753 262° West 463 533 26,700 1,320 Climbing FlightAware ADS-B
12:31PM 40.1895 -75.3657 262° West 468 539 27,400 1,200 Climbing FlightAware ADS-B
12:31PM 40.1797 -75.4510 261° West 472 543 28,000 1,260 Climbing FlightAware ADS-B
12:32PM 40.1686 -75.5460 261° West 473 544 28,800 1,920 Climbing FlightAware ADS-B
12:32PM 40.1576 -75.6397 261° West 460 529 30,200 2,040 Climbing FlightAware ADS-B
12:33PM 40.1472 -75.7284 261° West 456 525 31,100 1,320 Climbing FlightAware ADS-B
12:34PM 40.1363 -75.8208 261° West 460 529 31,700 1,200 Climbing FlightAware ADS-B
12:34PM 40.1265 -75.9035 261° West 459 528 32,400 1,440 Climbing FlightAware ADS-B
12:35PM 40.1164 -75.9874 261° West 452 520 33,200 1,560 Climbing FlightAware ADS-B
12:35PM 40.1058 -76.0753 261° West 446 513 34,100 1,560 Climbing FlightAware ADS-B
12:35PM 40.1044 -76.1280 268° West 443 510 34,600 1,320 Climbing FlightAware ADS-B
12:36PM 40.1085 -76.2082 274° West 438 504 35,200 960 Climbing FlightAware ADS-B
12:37PM 40.1120 -76.3207 272° West 440 506 35,800 600 Climbing FlightAware ADS-B
12:37PM 40.1130 -76.4009 271° West 442 509 36,000 180 Climbing FlightAware ADS-B
12:38PM 40.1136 -76.4854 271° West 443 510 36,000  Level FlightAware ADS-B
12:38PM 40.1147 -76.5422 271° West 443 510 36,000  Level FlightAware ADS-B
12:39PM 40.1183 -76.6378 273° West 445 512 36,000  Level FlightAware ADS-B
12:39PM 40.1213 -76.7192 273° West 444 511 36,000  Level FlightAware ADS-B
12:40PM 40.1274 -76.9042 273° West 446 513 36,000  Level FlightAware ADS-B
12:41PM 40.1310 -77.0248 272° West 449 517 36,000  Level FlightAware ADS-B
12:42PM 40.1335 -77.1063 272° West 448 516 36,000  Level FlightAware ADS-B
12:42PM 40.1361 -77.1958 272° West 447 514 36,000  Level FlightAware ADS-B
12:43PM 40.1385 -77.2768 272° West 446 513 36,000  Level FlightAware ADS-B
12:43PM 40.1425 -77.4163 272° West 444 511 36,000  Level FlightAware ADS-B
12:45PM 40.1478 -77.6163 272° West 442 509 36,000  Level FlightAware ADS-B
12:45PM 40.1502 -77.7092 272° West 443 510 36,000  Level FlightAware ADS-B
12:46PM 40.1526 -77.8030 272° West 443 510 36,000  Level FlightAware ADS-B
12:47PM 40.1550 -77.9053 272° West 445 512 36,000  Level FlightAware ADS-B
12:47PM 40.1574 -78.0112 272° West 445 512 36,000  Level FlightAware ADS-B
12:48PM 40.1596 -78.1127 272° West 445 512 36,000  Level FlightAware ADS-B
12:48PM 40.1616 -78.2057 272° West 444 511 36,000  Level FlightAware ADS-B
12:49PM 40.1630 -78.2750 272° West 444 511 36,000  Level FlightAware
12:50PM 40.1650 -78.3760 272° West 443 510 36,000  Level FlightAware
12:50PM 40.1680 -78.5060 272° West 441 507 36,000  Level FlightAware
12:51PM 40.1690 -78.6070 271° West 440 506 36,000  Level FlightAware
12:52PM 40.1720 -78.7500 272° West 438 504 36,000  Level FlightAware
12:53PM 40.1730 -78.8640 271° West 436 502 36,000  Level FlightAware
12:53PM 40.1750 -78.9820 271° West 436 502 36,000  Level FlightAware
12:54PM 40.1760 -79.0710 271° West 436 502 36,000  Level FlightAware
12:55PM 40.1790 -79.2310 271° West 434 499 36,000  Level FlightAware
12:56PM 40.1800 -79.3580 271° West 433 498 36,000  Level FlightAware
12:56PM 40.1810 -79.4550 271° West 434 499 36,000  Level FlightAware
12:57PM 40.1820 -79.5620 271° West 434 499 36,000  Level FlightAware
12:58PM 40.1830 -79.6880 271° West 434 499 36,000  Level FlightAware
12:58PM 40.1840 -79.7930 271° West 435 501 36,000  Level FlightAware
12:59PM 40.1850 -79.9050 271° West 435 501 36,000  Level FlightAware
01:00PM 40.1850 -80.0120 270° West 436 502 36,000  Level FlightAware
01:01PM 40.1860 -80.1150 271° West 435 501 36,000  Level FlightAware
01:01PM 40.1860 -80.2400 270° West 434 499 36,000  Level FlightAware
01:02PM 40.1870 -80.3410 271° West 433 498 36,000  Level FlightAware
01:03PM 40.1870 -80.4460 270° West 432 497 36,000  Level FlightAware
01:03PM 40.1870 -80.5500 270° West 431 496 36,000  Level FlightAware
01:04PM 40.1870 -80.6610 270° West 430 495 36,000  Level FlightAware
01:05PM 40.1870 -80.7800 270° West 430 495 36,000  Level FlightAware
01:05PM 40.1870 -80.8870 270° West 430 495 36,000  Level FlightAware
01:06PM 40.1860 -80.9910 269° West 429 494 36,000  Level FlightAware
01:07PM 40.1860 -81.1060 270° West 430 495 36,000  Level FlightAware
01:08PM 40.1850 -81.2080 269° West 429 494 36,000  Level FlightAware
01:08PM 40.1850 -81.3290 270° West 430 495 36,000  Level FlightAware
01:09PM 40.1840 -81.4310 269° West 430 495 36,000  Level FlightAware
01:10PM 40.1830 -81.5420 269° West 430 495 36,000  Level FlightAware
01:10PM 40.1820 -81.6500 269° West 430 495 36,000  Level FlightAware
01:11PM 40.1810 -81.7550 269° West 430 495 36,000  Level FlightAware
01:12PM 40.1800 -81.8570 269° West 431 496 36,000  Level FlightAware
01:12PM 40.1790 -81.9750 269° West 431 496 36,000  Level FlightAware
01:13PM 40.1780 -82.0770 269° West 431 496 36,000  Level FlightAware
01:14PM 40.1760 -82.1950 269° West 431 496 36,000  Level FlightAware
01:15PM 40.1750 -82.2970 269° West 431 496 36,000  Level FlightAware
01:15PM 40.1730 -82.4190 269° West 431 496 36,000  Level FlightAware
01:16PM 40.1710 -82.5220 269° West 430 495 36,000  Level FlightAware
01:17PM 40.1700 -82.6260 269° West 430 495 36,000  Level FlightAware
01:17PM 40.1680 -82.7400 269° West 430 495 36,000  Level FlightAware
01:18PM 40.1660 -82.8440 269° West 431 496 36,000  Level FlightAware
01:19PM 40.1630 -82.9630 268° West 431 496 36,000  Level FlightAware
01:20PM 40.1610 -83.0780 269° West 432 497 36,000  Level FlightAware
01:20PM 40.1590 -83.1820 269° West 432 497 36,000  Level FlightAware
01:21PM 40.1560 -83.2860 268° West 432 497 36,000  Level FlightAware
01:22PM 40.1530 -83.4030 268° West 433 498 36,000  Level FlightAware
01:22PM 40.1510 -83.5120 269° West 433 498 36,000  Level FlightAware
01:23PM 40.1480 -83.6060 268° West 434 499 36,000  Level FlightAware
01:24PM 40.1450 -83.7290 268° West 435 501 36,000  Level FlightAware
01:24PM 40.1420 -83.8360 268° West 436 502 36,000  Level FlightAware
01:25PM 40.1390 -83.9410 268° West 437 503 36,000  Level FlightAware
01:26PM 40.1360 -84.0620 268° West 438 504 36,000  Level FlightAware
01:27PM 40.1320 -84.1790 267° West 439 505 36,000  Level FlightAware
01:27PM 40.1290 -84.2820 268° West 439 505 36,000  Level FlightAware
01:28PM 40.1260 -84.3910 268° West 441 507 36,000  Level FlightAware
01:29PM 40.1210 -84.5140 267° West 441 507 36,000  Level FlightAware
01:29PM 40.1180 -84.6190 268° West 442 509 36,000  Level FlightAware
01:30PM 40.1140 -84.7250 267° West 444 511 36,000  Level FlightAware
01:31PM 40.1100 -84.8420 267° West 445 512 36,000  Level FlightAware
01:32PM 40.1040 -84.9910 267° West 448 516 36,000  Level FlightAware
01:32PM 40.1000 -85.1070 267° West 450 518 36,000  Level FlightAware
01:33PM 40.0950 -85.2210 267° West 452 520 36,000  Level FlightAware
01:34PM 40.0910 -85.3290 267° West 453 521 36,000  Level FlightAware
01:34PM 40.0860 -85.4570 267° West 454 522 36,000  Level FlightAware
01:35PM 40.0810 -85.5550 266° West 454 522 36,000  Level FlightAware
01:36PM 40.0770 -85.6730 268° West 454 522 36,000  Level FlightAware
01:37PM 40.0710 -85.7960 266° West 455 524 36,000  Level FlightAware
01:37PM 40.0660 -85.9010 266° West 455 524 36,000  Level FlightAware
01:38PM 40.0610 -86.0060 266° West 455 524 36,000  Level FlightAware
01:39PM 40.0550 -86.1360 267° West 453 521 36,000  Level FlightAware
01:39PM 40.0500 -86.2490 267° West 453 521 36,000  Level FlightAware
01:40PM 40.0440 -86.3620 266° West 454 522 36,000  Level FlightAware
01:41PM 40.0370 -86.5190 267° West 455 524 36,000  Level FlightAware
01:42PM 40.0310 -86.6180 266° West 457 526 36,000  Level FlightAware
01:42PM 40.0250 -86.7450 267° West 458 527 36,000  Level FlightAware
01:43PM 40.0160 -86.9060 266° West 457 526 36,000  Level FlightAware
01:44PM 40.0100 -87.0160 266° West 457 526 36,000  Level FlightAware
01:45PM 40.0030 -87.1370 266° West 456 525 36,000  Level FlightAware
01:45PM 39.9970 -87.2440 266° West 456 525 36,000  Level FlightAware
01:46PM 39.9920 -87.3260 265° West 456 525 36,000  Level FlightAware
01:47PM 39.9860 -87.4320 266° West 455 524 36,000  Level FlightAware
01:47PM 39.9800 -87.5450 266° West 455 524 36,000  Level FlightAware
01:48PM 39.9720 -87.6690 265° West 455 524 36,000  Level FlightAware
01:49PM 39.9650 -87.7810 265° West 455 524 36,000  Level FlightAware
01:49PM 39.9570 -87.9050 265° West 454 522 36,000  Level FlightAware
01:50PM 39.9510 -87.9960 265° West 454 522 36,000  Level FlightAware
01:51PM 39.9430 -88.1200 265° West 453 521 36,000  Level FlightAware
01:51PM 39.9350 -88.2440 265° West 453 521 36,000  Level FlightAware
01:52PM 39.9280 -88.3510 265° West 454 522 36,000  Level FlightAware
01:53PM 39.9200 -88.4710 265° West 453 521 36,000  Level FlightAware
01:53PM 39.9150 -88.5410 265° West 453 521 36,000  Level FlightAware
01:54PM 39.9080 -88.6480 265° West 453 521 36,000  Level FlightAware
01:55PM 39.9000 -88.7680 265° West 453 521 36,000  Level FlightAware
01:55PM 39.8920 -88.8780 265° West 453 521 36,000  Level FlightAware
01:56PM 39.8830 -89.0020 265° West 454 522 36,000  Level FlightAware
01:57PM 39.8750 -89.1130 265° West 454 522 36,000  Level FlightAware
01:58PM 39.8660 -89.2320 264° West 455 524 36,000  Level FlightAware
01:58PM 39.8580 -89.3340 264° West 456 525 36,000  Level FlightAware
01:59PM 39.8490 -89.4490 264° West 458 527 36,000  Level FlightAware
02:00PM 39.8400 -89.5740 265° West 458 527 36,000  Level FlightAware
02:00PM 39.8300 -89.6960 264° West 459 528 36,000  Level FlightAware
02:01PM 39.8210 -89.8090 264° West 458 527 36,000  Level FlightAware
02:02PM 39.8120 -89.9270 264° West 459 528 36,000  Level FlightAware
02:02PM 39.8030 -90.0380 264° West 459 528 36,000  Level FlightAware
02:03PM 39.7960 -90.1200 264° West 457 526 36,000  Level FlightAware
02:04PM 39.7870 -90.2300 264° West 457 526 36,000 300 Level FlightAware
02:04PM 39.7780 -90.3360 264° West 456 525 36,400 900 Climbing FlightAware
02:05PM 39.7670 -90.4580 263° West 453 521 37,300 720 Climbing FlightAware
02:06PM 39.7550 -90.6000 264° West 454 522 37,600 420 Climbing FlightAware
02:07PM 39.7460 -90.7080 264° West 449 517 38,000 300 Climbing FlightAware
02:07PM 39.7360 -90.8230 264° West 448 516 38,000  Level FlightAware
02:08PM 39.7250 -90.9380 263° West 449 517 38,000  Level FlightAware
02:09PM 39.7150 -91.0470 263° West 450 518 38,000  Level FlightAware
02:09PM 39.7060 -91.1500 264° West 451 519 38,000  Level FlightAware
02:10PM 39.6940 -91.2820 263° West 451 519 38,000  Level FlightAware
02:11PM 39.6800 -91.4340 263° West 453 521 38,000  Level FlightAware
02:12PM 39.6710 -91.5230 263° West 453 521 38,000  Level FlightAware
02:12PM 39.6600 -91.6430 263° West 456 525 38,000  Level FlightAware
02:13PM 39.6440 -91.7990 262° West 457 526 38,000  Level FlightAware
02:14PM 39.6340 -91.9130 264° West 458 527 38,000  Level FlightAware
02:15PM 39.6210 -92.0360 262° West 457 526 38,000  Level FlightAware
02:16PM 39.6090 -92.1590 263° West 456 525 38,000  Level FlightAware
02:16PM 39.5980 -92.2650 262° West 455 524 38,000  Level FlightAware
02:17PM 39.5870 -92.3790 263° West 455 524 38,000  Level FlightAware
02:17PM 39.5780 -92.4610 262° West 454 522 38,000  Level FlightAware
02:18PM 39.5660 -92.5730 262° West 454 522 38,000  Level FlightAware
02:19PM 39.5500 -92.7280 262° West 455 524 38,000  Level FlightAware
02:20PM 39.5390 -92.8370 263° West 456 525 38,000  Level FlightAware
02:20PM 39.5270 -92.9440 262° West 454 522 38,000  Level FlightAware
02:21PM 39.5150 -93.0610 262° West 453 521 38,000  Level FlightAware
02:22PM 39.5050 -93.1540 262° West 452 520 38,000  Level FlightAware
02:23PM 39.4900 -93.2900 262° West 451 519 38,000  Level FlightAware
02:23PM 39.4780 -93.3980 262° West 451 519 38,000  Level FlightAware
02:24PM 39.4660 -93.5050 262° West 451 519 38,000  Level FlightAware
02:25PM 39.4520 -93.6220 261° West 451 519 38,000  Level FlightAware
02:25PM 39.4400 -93.7300 262° West 452 520 38,000  Level FlightAware
02:26PM 39.4260 -93.8520 262° West 452 520 38,000  Level FlightAware
02:27PM 39.4130 -93.9600 261° West 454 522 38,000  Level FlightAware
02:27PM 39.4010 -94.0670 262° West 455 524 38,000  Level FlightAware
02:28PM 39.3870 -94.1840 261° West 455 524 38,000  Level FlightAware
02:29PM 39.3740 -94.2920 261° West 455 524 38,000  Level FlightAware
02:30PM 39.3590 -94.4150 261° West 456 525 38,000  Level FlightAware
02:30PM 39.3460 -94.5240 261° West 457 526 38,000  Level FlightAware
02:31PM 39.3330 -94.6320 261° West 458 527 38,000  Level FlightAware
02:32PM 39.3180 -94.7510 261° West 458 527 38,000  Level FlightAware
02:32PM 39.3050 -94.8580 261° West 458 527 38,000  Level FlightAware
02:33PM 39.2890 -94.9830 261° West 459 528 38,000  Level FlightAware
02:34PM 39.2760 -95.0910 261° West 460 529 38,000  Level FlightAware
02:34PM 39.2620 -95.1990 261° West 462 532 38,000  Level FlightAware
02:35PM 39.2470 -95.3160 261° West 463 533 38,000  Level FlightAware
02:36PM 39.2430 -95.3450 260° West 463 533 38,000  Level FlightAware
02:36PM 39.2270 -95.4730 261° West 465 535 38,000  Level FlightAware
02:37PM 39.2100 -95.5990 260° West 467 537 38,000  Level FlightAware
02:38PM 39.1960 -95.7030 260° West 467 537 38,000  Level FlightAware
02:39PM 39.1790 -95.8350 261° West 467 537 38,000  Level FlightAware
02:39PM 39.1660 -95.9310 260° West 468 539 38,000  Level FlightAware
02:40PM 39.1390 -96.1250 260° West 467 537 38,000  Level FlightAware
02:41PM 39.1280 -96.2090 260° West 467 537 38,000  Level FlightAware
02:41PM 39.1150 -96.3020 260° West 467 537 38,000  Level FlightAware
02:42PM 39.0990 -96.4190 260° West 467 537 38,000  Level FlightAware
02:43PM 39.0860 -96.5120 260° West 467 537 38,000  Level FlightAware
02:43PM 39.0740 -96.6050 261° West 467 537 38,000  Level FlightAware
02:44PM 39.0610 -96.6980 260° West 467 537 38,000  Level FlightAware
02:45PM 39.0480 -96.7920 260° West 467 537 38,000  Level FlightAware
02:46PM 39.0320 -96.9080 260° West 467 537 38,000  Level FlightAware
02:46PM 39.0190 -97.0010 260° West 467 537 38,000  Level FlightAware
02:47PM 39.0070 -97.0940 261° West 467 537 38,000  Level FlightAware
02:48PM 38.9940 -97.1870 260° West 467 537 38,000  Level FlightAware
02:48PM 38.9450 -97.4910 258° West 468 539 38,000  Level FlightAware
02:49PM 38.9240 -97.6320 259° West 468 539 38,000  Level FlightAware
02:50PM 38.9090 -97.7410 260° West 468 539 38,000  Level FlightAware
02:51PM 38.8960 -97.8340 260° West 468 539 38,000  Level FlightAware
02:51PM 38.8830 -97.9270 260° West 468 539 38,000  Level FlightAware
02:52PM 38.8700 -98.0210 260° West 468 539 38,000  Level FlightAware
02:53PM 38.8540 -98.1370 260° West 468 539 38,000  Level FlightAware
02:54PM 38.8410 -98.2300 260° West 468 539 38,000  Level FlightAware
02:54PM 38.8290 -98.3230 261° West 468 539 38,000  Level FlightAware
02:55PM 38.8160 -98.4160 260° West 468 539 38,000  Level FlightAware
02:56PM 38.8030 -98.5090 260° West 468 539 38,000  Level FlightAware
02:56PM 38.7870 -98.6250 260° West 468 539 38,000  Level FlightAware
02:57PM 38.7740 -98.7180 260° West 468 539 38,000  Level FlightAware
02:58PM 38.7610 -98.8110 260° West 468 539 38,000  Level FlightAware
02:58PM 38.7490 -98.9040 261° West 468 539 38,000  Level FlightAware
02:59PM 38.7360 -98.9970 260° West 468 539 38,000  Level FlightAware
03:00PM 38.7044 -99.3389 260° West 458 527 38,000  Level Denver Center
03:01PM 38.6800 -99.5181 260° West 459 528 38,000  Level Denver Center
03:02PM 38.6592 -99.6714 260° West 459 528 38,000  Level Denver Center
03:03PM 38.6336 -99.8492 260° West 457 526 38,000  Level Denver Center
03:04PM 38.6111 -100.0000 259° West 455 524 38,000  Level Denver Center
03:05PM 38.5864 -100.1758 260° West 453 521 38,000  Level Denver Center
03:06PM 38.5650 -100.3269 260° West 453 521 38,000  Level Denver Center
03:07PM 38.5392 -100.5019 259° West 451 519 38,000  Level Denver Center
03:08PM 38.5178 -100.6511 260° West 450 518 38,000  Level Denver Center
03:14PM 38.3860 -101.5160 260° West 444 511 38,000  Level FlightAware
03:14PM 38.3667 -101.6420 259° West 444 511 38,000  Level FlightAware ADS-B
03:15PM 38.3545 -101.7190 259° West 444 511 38,000  Level FlightAware ADS-B
03:15PM 38.3421 -101.7970 259° West 444 511 38,000  Level FlightAware ADS-B
03:16PM 38.3295 -101.8760 259° West 444 511 38,000  Level FlightAware ADS-B
03:16PM 38.3172 -101.9530 259° West 444 511 38,000  Level FlightAware ADS-B
03:17PM 38.3048 -102.0300 258° West 444 511 38,000  Level FlightAware ADS-B
03:18PM 38.2906 -102.1190 259° West 444 511 38,000  Level FlightAware ADS-B
03:18PM 38.2779 -102.1970 258° West 443 510 38,000  Level FlightAware ADS-B
03:19PM 38.2650 -102.2760 258° West 443 510 38,000  Level FlightAware ADS-B
03:19PM 38.2520 -102.3550 258° West 442 509 38,000  Level FlightAware ADS-B
03:20PM 38.2389 -102.4350 258° West 441 507 38,000  Level FlightAware ADS-B
03:20PM 38.2259 -102.5140 258° West 441 507 38,000  Level FlightAware ADS-B
03:21PM 38.2127 -102.5930 258° West 441 507 38,000  Level FlightAware ADS-B
03:21PM 38.2024 -102.6540 258° West 442 509 38,000  Level FlightAware ADS-B
03:22PM 38.1864 -102.7300 255° West 446 513 38,000  Level FlightAware ADS-B
03:22PM 38.1764 -102.7700 252° West 448 516 38,000  Level FlightAware ADS-B
03:22PM 38.1567 -102.8470 252° West 450 518 38,000  Level FlightAware ADS-B
03:23PM 38.1370 -102.9220 252° West 450 518 38,000  Level FlightAware ADS-B
03:23PM 38.1163 -103.0020 252° West 449 517 38,000  Level FlightAware ADS-B
03:24PM 38.0967 -103.0780 252° West 449 517 38,000  Level FlightAware ADS-B
03:24PM 38.0768 -103.1550 252° West 448 516 38,000  Level FlightAware ADS-B
03:25PM 38.0571 -103.2310 252° West 447 514 38,000  Level FlightAware ADS-B
03:25PM 38.0376 -103.3050 252° West 447 514 38,000  Level FlightAware ADS-B
03:26PM 38.0182 -103.3800 252° West 446 513 38,000  Level FlightAware ADS-B
03:26PM 37.9977 -103.4580 252° West 444 511 38,000  Level FlightAware ADS-B
03:27PM 37.9783 -103.5320 252° West 441 507 38,000  Level FlightAware ADS-B
03:27PM 37.9589 -103.6050 251° West 443 510 38,000  Level FlightAware ADS-B
03:28PM 37.9384 -103.6830 252° West 445 512 38,000  Level FlightAware ADS-B
03:28PM 37.9175 -103.7610 251° West 445 512 38,000  Level FlightAware ADS-B
03:29PM 37.8976 -103.8360 251° West 444 511 38,000  Level FlightAware ADS-B
03:29PM 37.8767 -103.9140 251° West 443 510 38,000  Level FlightAware ADS-B
03:30PM 37.8557 -103.9930 251° West 443 510 38,000  Level FlightAware ADS-B
03:31PM 37.8358 -104.0670 251° West 443 510 38,000  Level FlightAware ADS-B
03:31PM 37.8159 -104.1410 251° West 444 511 38,000  Level FlightAware ADS-B
03:32PM 37.7936 -104.2230 251° West 443 510 38,000  Level FlightAware ADS-B
03:32PM 37.7710 -104.3060 251° West 442 509 38,000  Level FlightAware ADS-B
03:33PM 37.7503 -104.3830 251° West 440 506 38,000  Level FlightAware ADS-B
03:34PM 37.7085 -104.5360 251° West 439 505 38,000  Level FlightAware ADS-B
03:34PM 37.6854 -104.6200 251° West 439 505 38,000  Level FlightAware ADS-B
03:35PM 37.6640 -104.6980 251° West 439 505 38,000  Level FlightAware ADS-B
03:35PM 37.6439 -104.7700 251° West 439 505 38,000  Level FlightAware ADS-B
03:36PM 37.6119 -104.8860 251° West 440 506 38,000  Level FlightAware ADS-B
03:37PM 37.5876 -104.9730 251° West 441 507 38,000  Level FlightAware ADS-B
03:37PM 37.5669 -105.0470 251° West 440 506 38,000  Level FlightAware ADS-B
03:38PM 37.5368 -105.1550 251° West 439 505 38,000  Level FlightAware ADS-B
03:39PM 37.5149 -105.2330 251° West 438 504 38,000  Level FlightAware ADS-B
03:39PM 37.4844 -105.3410 250° West 437 503 38,000  Level FlightAware ADS-B
03:40PM 37.4626 -105.4180 250° West 436 502 38,000  Level FlightAware ADS-B
03:40PM 37.4410 -105.4940 250° West 435 501 38,000  Level FlightAware ADS-B
03:41PM 37.4074 -105.6120 250° West 436 502 38,000  Level FlightAware ADS-B
03:42PM 37.3869 -105.6840 250° West 436 502 38,000  Level FlightAware ADS-B
03:43PM 37.3176 -105.9390 251° West 436 502 38,000  Level FlightAware ADS-B
03:45PM 37.2744 -106.1097 251° West 433 498 38,000  Level Denver Center
03:46PM 37.2394 -106.2461 252° West 432 497 38,000  Level Denver Center
03:47PM 37.1983 -106.4047 252° West 429 494 38,000  Level Denver Center
03:48PM 37.1619 -106.5439 252° West 436 502 38,000  Level Denver Center
03:49PM 37.1214 -106.7042 252° West 433 498 38,000  Level Denver Center
03:50PM 37.0783 -106.8664 252° West 438 504 38,000  Level Denver Center
03:51PM 37.0367 -107.0267 252° West 434 499 38,000  Level Denver Center
03:52PM 37.0067 -107.1417 252° West 436 502 38,000  Level Denver Center
03:53PM 36.9556 -107.3253 251° West 438 504 38,000  Level Denver Center
03:54PM 36.9211 -107.4639 253° West 436 502 38,000  Level Denver Center
03:55PM 36.8769 -107.6244 251° West 436 502 38,000  Level Denver Center
03:56PM 36.8397 -107.7622 251° West 438 504 38,000  Level Denver Center
03:57PM 36.7972 -107.9222 252° West 436 502 38,000  Level Denver Center
03:58PM 36.7603 -108.0606 252° West 438 504 38,000  Level Denver Center
03:59PM 36.7253 -108.2217 255° West 434 499 38,000  Level Denver Center
04:00PM 36.7003 -108.3603 257° West 430 495 38,000  Level Denver Center
04:02PM 36.6708 -108.5233 257° West 431 496 38,000  Level Denver Center
04:03PM 36.6442 -108.6622 257° West 434 499 38,000  Level Denver Center
04:04PM 36.6136 -108.8225 257° West 430 495 38,000  Level Denver Center
04:05PM 36.5828 -108.9831 257° West 430 495 38,000  Level Denver Center
04:06PM 36.5528 -109.1456 257° West 434 499 38,000  Level Denver Center
04:07PM 36.5253 -109.2842 256° West 434 499 38,000  Level Denver Center
04:13PM 36.3500 -110.1620 256° West 433 498 38,000  Level FlightAware
04:14PM 36.3270 -110.2810 257° West 433 498 38,000  Level FlightAware
04:14PM 36.3050 -110.3910 256° West 432 497 38,000  Level FlightAware
04:15PM 36.2860 -110.4820 256° West 432 497 38,000  Level FlightAware
04:16PM 36.2640 -110.5900 256° West 431 496 38,000  Level FlightAware
04:16PM 36.2430 -110.6920 256° West 430 495 38,000  Level FlightAware
04:17PM 36.2230 -110.7860 255° West 430 495 38,000  Level FlightAware
04:18PM 36.2010 -110.8900 255° West 430 495 38,000  Level FlightAware
04:19PM 36.1810 -110.9870 256° West 430 495 38,000  Level FlightAware
04:19PM 36.1610 -111.0800 255° West 431 496 38,000  Level FlightAware
04:20PM 36.1380 -111.1900 256° West 431 496 38,000  Level FlightAware
04:21PM 36.1180 -111.2870 256° West 430 495 38,000  Level FlightAware
04:21PM 36.0980 -111.3820 255° West 429 494 38,000  Level FlightAware
04:22PM 36.0760 -111.4870 255° West 428 493 38,000  Level FlightAware
04:23PM 36.0560 -111.5810 255° West 428 493 38,000  Level FlightAware
04:23PM 36.0340 -111.6860 256° West 427 491 38,000  Level FlightAware
04:24PM 36.0140 -111.7800 255° West 427 491 38,000  Level FlightAware
04:25PM 35.9910 -111.8880 255° West 428 493 38,000  Level FlightAware
04:26PM 35.9710 -111.9830 255° West 428 493 38,000  Level FlightAware
04:26PM 35.9510 -112.0740 255° West 428 493 38,000  Level FlightAware
04:27PM 35.9290 -112.1780 255° West 427 491 38,000  Level FlightAware
04:28PM 35.9090 -112.2720 255° West 427 491 38,000  Level FlightAware
04:28PM 35.8850 -112.3820 255° West 427 491 38,000  Level FlightAware
04:29PM 35.8640 -112.4780 255° West 427 491 38,000  Level FlightAware
04:30PM 35.8410 -112.5800 254° West 427 491 38,000  Level FlightAware
04:30PM 35.8190 -112.6740 254° West 429 494 38,000  Level FlightAware
04:31PM 35.7880 -112.7660 247° West 431 496 38,000  Level FlightAware
04:32PM 35.7520 -112.8640 246° West 431 496 38,000  Level FlightAware
04:33PM 35.7190 -112.9540 246° West 430 495 38,000  Level FlightAware
04:33PM 35.6850 -113.0460 246° West 430 495 38,000  Level FlightAware
04:34PM 35.6480 -113.1450 245° Southwest 430 495 38,000  Level FlightAware
04:35PM 35.6160 -113.2330 246° West 430 495 38,000  Level FlightAware
04:35PM 35.5770 -113.3360 245° Southwest 431 496 38,000  Level FlightAware
04:36PM 35.5440 -113.4240 245° Southwest 431 496 38,000  Level FlightAware
04:37PM 35.5100 -113.5140 245° Southwest 430 495 38,000  Level FlightAware
04:37PM 35.4750 -113.6100 246° West 429 494 38,000  Level FlightAware
04:38PM 35.4420 -113.6980 245° Southwest 429 494 38,000  Level FlightAware
04:39PM 35.4100 -113.7840 245° Southwest 429 494 38,000  Level FlightAware
04:40PM 35.3740 -113.8820 246° West 428 493 38,000  Level FlightAware
04:40PM 35.3350 -113.9860 245° Southwest 428 493 38,000  Level FlightAware
04:41PM 35.3020 -114.0740 245° Southwest 427 491 38,000  Level FlightAware
04:42PM 35.2690 -114.1600 245° Southwest 426 490 38,000  Level FlightAware
04:42PM 35.2310 -114.2610 245° Southwest 425 489 38,000  Level FlightAware
04:43PM 35.1990 -114.3480 246° West 424 488 38,000  Level FlightAware
04:44PM 35.1620 -114.4450 245° Southwest 421 484 38,000  Level FlightAware
04:44PM 35.1300 -114.5300 245° Southwest 418 481 38,000  Level FlightAware
04:45PM 35.0970 -114.6160 245° Southwest 417 480 38,000  Level FlightAware
04:46PM 35.0600 -114.7130 245° Southwest 416 479 38,000  Level FlightAware
04:47PM 35.0290 -114.7930 245° Southwest 416 479 38,000  Level FlightAware
04:47PM 34.9910 -114.8910 245° Southwest 416 479 38,000  Level FlightAware
04:48PM 34.9580 -114.9770 245° Southwest 415 478 38,000  Level FlightAware
04:49PM 34.9260 -115.0610 245° Southwest 414 476 38,000  Level FlightAware
04:49PM 34.8880 -115.1590 245° Southwest 413 475 38,000  Level FlightAware
04:50PM 34.8560 -115.2400 244° Southwest 412 474 38,000  Level FlightAware
04:51PM 34.8230 -115.3250 245° Southwest 412 474 38,000  Level FlightAware
04:51PM 34.7880 -115.4160 245° Southwest 412 474 38,000  Level FlightAware
04:52PM 34.7540 -115.5010 244° Southwest 414 476 38,000  Level FlightAware
04:53PM 34.7170 -115.5960 245° Southwest 415 478 38,000  Level FlightAware
04:54PM 34.6840 -115.6790 244° Southwest 415 478 38,000  Level FlightAware
04:54PM 34.6470 -115.7740 245° Southwest 415 478 38,000  Level FlightAware
04:55PM 34.6140 -115.8570 244° Southwest 415 478 38,000  Level FlightAware
04:56PM 34.5830 -115.9350 244° Southwest 414 476 38,000 -900 Level FlightAware
04:56PM 34.5420 -116.0380 244° Southwest 422 486 36,800 -1,560 Descending FlightAware
04:57PM 34.5080 -116.1240 244° Southwest 428 493 35,800 -1,380 Descending FlightAware
04:58PM 34.4700 -116.2180 244° Southwest 433 498 34,900 -1,440 Descending FlightAware
04:58PM 34.4350 -116.3070 245° Southwest 441 507 33,800 -1,680 Descending FlightAware
04:59PM 34.3980 -116.3980 244° Southwest 450 518 32,700 -1,740 Descending FlightAware
05:00PM 34.3550 -116.5030 244° Southwest 450 518 31,400 -2,700 Descending FlightAware
05:01PM 34.3190 -116.5930 244° Southwest 457 526 28,900 -3,420 Descending FlightAware
05:01PM 34.2780 -116.6930 244° Southwest 447 514 26,600 -2,400 Descending FlightAware
05:02PM 34.2420 -116.7810 244° Southwest 422 486 25,500 -1,440 Descending FlightAware
05:03PM 34.2110 -116.8590 244° Southwest 394 453 24,700 -1,980 Descending FlightAware
05:03PM 34.1730 -116.9510 243° Southwest 376 433 22,700 -2,760 Descending FlightAware
05:04PM 34.1440 -117.0230 244° Southwest 371 427 20,800 -2,880 Descending FlightAware
05:05PM 34.1100 -117.1060 244° Southwest 362 417 18,700 -2,640 Descending FlightAware
05:05PM 34.0780 -117.1760 241° Southwest 344 396 17,100 -2,100 Descending FlightAware
05:06PM 34.0520 -117.2390 244° Southwest 312 359 15,900 -1,800 Descending FlightAware
05:07PM 34.0410 -117.3180 260° West 306 352 14,600 -1,440 Descending FlightAware
05:08PM 34.0350 -117.3910 264° West 307 353 13,800 -1,140 Descending FlightAware
05:08PM 34.0290 -117.4520 263° West 307 353 13,100 -1,200 Descending FlightAware
05:09PM 34.0220 -117.5250 263° West 304 350 12,200 -1,380 Descending FlightAware
05:10PM 34.0140 -117.6030 263° West 299 344 11,100 -1,500 Descending FlightAware
05:10PM 34.0080 -117.6680 264° West 307 353 10,100 -960 Descending FlightAware
05:11PM 34.0030 -117.7220 264° West 305 351 10,000 -780 Descending FlightAware
05:11PM 33.9990 -117.7610 263° West 302 348 9,400 -1,560 Descending FlightAware
05:12PM 33.9940 -117.8120 263° West 302 348 8,600 -1,440 Descending FlightAware
05:12PM 33.9900 -117.8550 264° West 298 343 8,100 -1,380 Descending FlightAware
05:12PM 33.9880 -117.8780 264° West 297 342 7,700 -1,380 Descending FlightAware
05:13PM 33.9830 -117.9270 263° West 292 336 7,100 -1,200 Descending FlightAware
05:13PM 33.9780 -117.9750 263° West 286 329 6,500 -1,200 Descending FlightAware
05:14PM 33.9740 -118.0160 263° West 278 320 6,000 -1,020 Descending FlightAware
05:14PM 33.9700 -118.0590 264° West 252 290 5,600 -900 Descending FlightAware
05:15PM 33.9670 -118.0920 264° West 239 275 5,200 -1,140 Descending FlightAware
05:15PM 33.9620 -118.1310 261° West 240 276 4,600 -1,140 Descending FlightAware
05:16PM 33.9590 -118.1650 264° West 239 275 4,200 -1,020 Descending FlightAware
05:16PM 33.9550 -118.2030 263° West 226 260 3,700 -1,020 Descending FlightAware
05:17PM 33.9510 -118.2380 262° West 203 234 3,200 -1,020 Descending FlightAware
05:19PM 33.9420 -118.3390 264° West 165 190 1,300 -900 Descending FlightAware
05:20PM 33.9360 -118.3950 263° West 128 147 300 -780 Descending FlightAware